sensor_id;sensor_type;location;lat;lon;timestamp;P1;durP1;ratioP1;P2;durP2;ratioP2
24373;SDS011;12498;50.880;12.096;2023-07-20T00:02:00;10.15;;;5.00;;
24373;SDS011;12498;50.880;12.096;2023-07-20T00:04:27;8.25;;;5.00;;
24373;SDS011;12498;50.880;12.096;2023-07-20T00:06:53;11.27;;;4.72;;
24373;SDS011;12498;50.880;12.096;2023-07-20T00:09:18;8.13;;;4.63;;
24373;SDS011;12498;50.880;12.096;2023-07-20T00:11:49;10.27;;;4.97;;
24373;SDS011;12498;50.880;12.096;2023-07-20T00:14:16;7.53;;;4.28;;
24373;SDS011;12498;50.880;12.096;2023-07-20T00:16:42;13.05;;;4.53;;
24373;SDS011;12498;50.880;12.096;2023-07-20T00:19:07;7.10;;;4.80;;
24373;SDS011;12498;50.880;12.096;2023-07-20T00:21:34;10.77;;;4.57;;
24373;SDS011;12498;50.880;12.096;2023-07-20T00:23:59;7.20;;;4.22;;
24373;SDS011;12498;50.880;12.096;2023-07-20T00:26:25;9.98;;;4.55;;
24373;SDS011;12498;50.880;12.096;2023-07-20T00:28:51;6.85;;;4.70;;
24373;SDS011;12498;50.880;12.096;2023-07-20T00:31:16;12.55;;;4.90;;
24373;SDS011;12498;50.880;12.096;2023-07-20T00:33:42;9.40;;;4.25;;
24373;SDS011;12498;50.880;12.096;2023-07-20T00:36:08;6.72;;;4.45;;
24373;SDS011;12498;50.880;12.096;2023-07-20T00:38:34;7.88;;;4.45;;
24373;SDS011;12498;50.880;12.096;2023-07-20T00:40:59;7.72;;;4.50;;
24373;SDS011;12498;50.880;12.096;2023-07-20T00:43:25;7.15;;;4.45;;
24373;SDS011;12498;50.880;12.096;2023-07-20T00:45:50;7.63;;;4.43;;
24373;SDS011;12498;50.880;12.096;2023-07-20T00:48:16;7.95;;;4.32;;
24373;SDS011;12498;50.880;12.096;2023-07-20T00:50:42;9.65;;;4.30;;
24373;SDS011;12498;50.880;12.096;2023-07-20T00:53:08;6.95;;;4.35;;
24373;SDS011;12498;50.880;12.096;2023-07-20T00:55:34;6.45;;;4.40;;
24373;SDS011;12498;50.880;12.096;2023-07-20T00:58:00;6.90;;;4.15;;
24373;SDS011;12498;50.880;12.096;2023-07-20T01:00:26;10.25;;;5.00;;
24373;SDS011;12498;50.880;12.096;2023-07-20T01:02:52;11.13;;;4.85;;
24373;SDS011;12498;50.880;12.096;2023-07-20T01:05:18;7.60;;;4.32;;
24373;SDS011;12498;50.880;12.096;2023-07-20T01:07:55;10.63;;;4.50;;
24373;SDS011;12498;50.880;12.096;2023-07-20T01:11:10;8.40;;;4.45;;
24373;SDS011;12498;50.880;12.096;2023-07-20T01:13:31;11.43;;;4.90;;
24373;SDS011;12498;50.880;12.096;2023-07-20T01:16:00;10.48;;;4.93;;
24373;SDS011;12498;50.880;12.096;2023-07-20T01:18:26;7.32;;;4.75;;
24373;SDS011;12498;50.880;12.096;2023-07-20T01:20:53;7.85;;;4.82;;
24373;SDS011;12498;50.880;12.096;2023-07-20T01:33:45;8.30;;;5.07;;
24373;SDS011;12498;50.880;12.096;2023-07-20T01:36:12;7.53;;;4.63;;
24373;SDS011;12498;50.880;12.096;2023-07-20T01:38:39;9.98;;;4.85;;
24373;SDS011;12498;50.880;12.096;2023-07-20T01:41:06;6.53;;;4.78;;
24373;SDS011;12498;50.880;12.096;2023-07-20T01:43:33;9.15;;;4.82;;
24373;SDS011;12498;50.880;12.096;2023-07-20T01:45:59;11.05;;;5.05;;
24373;SDS011;12498;50.880;12.096;2023-07-20T01:48:25;7.75;;;4.85;;
24373;SDS011;12498;50.880;12.096;2023-07-20T01:50:50;8.77;;;4.78;;
24373;SDS011;12498;50.880;12.096;2023-07-20T01:53:16;7.82;;;5.07;;
24373;SDS011;12498;50.880;12.096;2023-07-20T01:55:42;12.88;;;4.60;;
24373;SDS011;12498;50.880;12.096;2023-07-20T01:58:08;6.80;;;4.85;;
24373;SDS011;12498;50.880;12.096;2023-07-20T02:00:34;6.25;;;4.82;;
24373;SDS011;12498;50.880;12.096;2023-07-20T02:03:01;6.82;;;4.40;;
24373;SDS011;12498;50.880;12.096;2023-07-20T02:05:27;9.40;;;5.10;;
24373;SDS011;12498;50.880;12.096;2023-07-20T02:07:53;10.32;;;5.30;;
24373;SDS011;12498;50.880;12.096;2023-07-20T02:10:19;6.70;;;4.60;;
24373;SDS011;12498;50.880;12.096;2023-07-20T02:12:44;7.88;;;5.38;;
24373;SDS011;12498;50.880;12.096;2023-07-20T02:15:10;9.98;;;5.45;;
24373;SDS011;12498;50.880;12.096;2023-07-20T02:17:38;10.05;;;5.43;;
24373;SDS011;12498;50.880;12.096;2023-07-20T02:20:06;7.80;;;5.35;;
24373;SDS011;12498;50.880;12.096;2023-07-20T02:22:33;11.82;;;5.30;;
24373;SDS011;12498;50.880;12.096;2023-07-20T02:24:59;11.75;;;5.10;;
24373;SDS011;12498;50.880;12.096;2023-07-20T02:27:25;10.43;;;5.32;;
24373;SDS011;12498;50.880;12.096;2023-07-20T02:29:50;8.23;;;5.20;;
24373;SDS011;12498;50.880;12.096;2023-07-20T02:32:16;9.27;;;4.75;;
24373;SDS011;12498;50.880;12.096;2023-07-20T02:34:41;14.40;;;5.93;;
24373;SDS011;12498;50.880;12.096;2023-07-20T02:37:07;10.50;;;5.60;;
24373;SDS011;12498;50.880;12.096;2023-07-20T02:39:33;9.93;;;5.35;;
24373;SDS011;12498;50.880;12.096;2023-07-20T02:41:59;10.15;;;5.72;;
24373;SDS011;12498;50.880;12.096;2023-07-20T02:44:25;9.30;;;5.70;;
24373;SDS011;12498;50.880;12.096;2023-07-20T02:46:50;10.02;;;5.80;;
24373;SDS011;12498;50.880;12.096;2023-07-20T02:49:16;10.70;;;5.60;;
24373;SDS011;12498;50.880;12.096;2023-07-20T02:51:42;6.57;;;5.05;;
24373;SDS011;12498;50.880;12.096;2023-07-20T02:54:07;10.70;;;5.53;;
24373;SDS011;12498;50.880;12.096;2023-07-20T02:56:33;13.25;;;5.88;;
24373;SDS011;12498;50.880;12.096;2023-07-20T02:59:00;11.50;;;5.30;;
24373;SDS011;12498;50.880;12.096;2023-07-20T03:01:26;11.70;;;5.90;;
24373;SDS011;12498;50.880;12.096;2023-07-20T03:03:54;12.23;;;5.55;;
24373;SDS011;12498;50.880;12.096;2023-07-20T03:06:23;9.48;;;5.93;;
24373;SDS011;12498;50.880;12.096;2023-07-20T03:08:48;11.15;;;5.90;;
24373;SDS011;12498;50.880;12.096;2023-07-20T03:11:17;17.00;;;6.13;;
24373;SDS011;12498;50.880;12.096;2023-07-20T03:13:43;14.23;;;6.40;;
24373;SDS011;12498;50.880;12.096;2023-07-20T03:16:13;13.18;;;6.00;;
24373;SDS011;12498;50.880;12.096;2023-07-20T03:18:44;11.23;;;6.07;;
24373;SDS011;12498;50.880;12.096;2023-07-20T03:21:10;14.52;;;6.35;;
24373;SDS011;12498;50.880;12.096;2023-07-20T03:23:37;11.80;;;6.13;;
24373;SDS011;12498;50.880;12.096;2023-07-20T03:26:03;11.30;;;5.88;;
24373;SDS011;12498;50.880;12.096;2023-07-20T03:28:28;9.93;;;5.65;;
24373;SDS011;12498;50.880;12.096;2023-07-20T03:30:57;7.60;;;5.82;;
24373;SDS011;12498;50.880;12.096;2023-07-20T03:33:26;13.57;;;6.13;;
24373;SDS011;12498;50.880;12.096;2023-07-20T03:35:53;16.15;;;6.15;;
24373;SDS011;12498;50.880;12.096;2023-07-20T03:38:19;10.15;;;6.07;;
24373;SDS011;12498;50.880;12.096;2023-07-20T03:40:52;12.50;;;5.80;;
24373;SDS011;12498;50.880;12.096;2023-07-20T03:43:19;12.02;;;6.13;;
24373;SDS011;12498;50.880;12.096;2023-07-20T03:45:46;11.98;;;5.93;;
24373;SDS011;12498;50.880;12.096;2023-07-20T03:48:13;16.90;;;6.10;;
24373;SDS011;12498;50.880;12.096;2023-07-20T03:50:43;10.52;;;6.25;;
24373;SDS011;12498;50.880;12.096;2023-07-20T03:53:10;13.43;;;5.93;;
24373;SDS011;12498;50.880;12.096;2023-07-20T03:55:36;9.35;;;6.22;;
24373;SDS011;12498;50.880;12.096;2023-07-20T03:58:02;11.73;;;6.18;;
24373;SDS011;12498;50.880;12.096;2023-07-20T04:00:28;14.43;;;6.35;;
24373;SDS011;12498;50.880;12.096;2023-07-20T04:02:53;13.10;;;6.53;;
24373;SDS011;12498;50.880;12.096;2023-07-20T04:05:19;10.68;;;5.78;;
24373;SDS011;12498;50.880;12.096;2023-07-20T04:07:45;9.95;;;5.63;;
24373;SDS011;12498;50.880;12.096;2023-07-20T04:10:11;12.45;;;5.68;;
24373;SDS011;12498;50.880;12.096;2023-07-20T04:12:36;14.40;;;6.40;;
24373;SDS011;12498;50.880;12.096;2023-07-20T04:15:02;12.05;;;6.18;;
24373;SDS011;12498;50.880;12.096;2023-07-20T04:17:28;20.20;;;10.85;;
24373;SDS011;12498;50.880;12.096;2023-07-20T04:19:54;13.10;;;6.80;;
24373;SDS011;12498;50.880;12.096;2023-07-20T04:22:20;10.57;;;6.22;;
24373;SDS011;12498;50.880;12.096;2023-07-20T04:24:46;13.60;;;6.13;;
24373;SDS011;12498;50.880;12.096;2023-07-20T04:27:11;14.02;;;6.05;;
24373;SDS011;12498;50.880;12.096;2023-07-20T04:29:37;11.82;;;6.03;;
24373;SDS011;12498;50.880;12.096;2023-07-20T04:32:03;13.38;;;6.60;;
24373;SDS011;12498;50.880;12.096;2023-07-20T04:34:28;11.88;;;5.68;;
24373;SDS011;12498;50.880;12.096;2023-07-20T04:36:54;15.50;;;6.03;;
24373;SDS011;12498;50.880;12.096;2023-07-20T04:39:20;8.90;;;5.82;;
24373;SDS011;12498;50.880;12.096;2023-07-20T04:41:45;11.65;;;5.88;;
24373;SDS011;12498;50.880;12.096;2023-07-20T04:44:11;12.32;;;5.25;;
24373;SDS011;12498;50.880;12.096;2023-07-20T04:46:38;10.10;;;4.72;;
24373;SDS011;12498;50.880;12.096;2023-07-20T04:49:05;11.95;;;5.20;;
24373;SDS011;12498;50.880;12.096;2023-07-20T04:51:30;11.35;;;4.85;;
24373;SDS011;12498;50.880;12.096;2023-07-20T04:53:56;13.15;;;5.22;;
24373;SDS011;12498;50.880;12.096;2023-07-20T04:56:22;9.90;;;4.72;;
24373;SDS011;12498;50.880;12.096;2023-07-20T04:58:49;11.43;;;6.15;;
24373;SDS011;12498;50.880;12.096;2023-07-20T05:01:15;15.15;;;6.07;;
24373;SDS011;12498;50.880;12.096;2023-07-20T05:03:40;11.77;;;5.60;;
24373;SDS011;12498;50.880;12.096;2023-07-20T05:06:06;10.63;;;4.70;;
24373;SDS011;12498;50.880;12.096;2023-07-20T05:08:32;13.20;;;5.07;;
24373;SDS011;12498;50.880;12.096;2023-07-20T05:10:57;16.83;;;5.55;;
24373;SDS011;12498;50.880;12.096;2023-07-20T05:13:24;9.63;;;4.50;;
24373;SDS011;12498;50.880;12.096;2023-07-20T05:15:51;9.23;;;4.82;;
24373;SDS011;12498;50.880;12.096;2023-07-20T05:18:17;12.05;;;5.45;;
24373;SDS011;12498;50.880;12.096;2023-07-20T05:20:45;9.43;;;5.00;;
24373;SDS011;12498;50.880;12.096;2023-07-20T05:23:12;13.13;;;5.15;;
24373;SDS011;12498;50.880;12.096;2023-07-20T05:25:38;9.20;;;5.00;;
24373;SDS011;12498;50.880;12.096;2023-07-20T05:28:03;9.15;;;5.40;;
24373;SDS011;12498;50.880;12.096;2023-07-20T05:30:29;11.60;;;5.40;;
24373;SDS011;12498;50.880;12.096;2023-07-20T05:32:54;10.55;;;5.15;;
24373;SDS011;12498;50.880;12.096;2023-07-20T05:35:20;12.25;;;5.50;;
24373;SDS011;12498;50.880;12.096;2023-07-20T05:37:46;9.73;;;5.22;;
24373;SDS011;12498;50.880;12.096;2023-07-20T05:40:12;11.23;;;5.57;;
24373;SDS011;12498;50.880;12.096;2023-07-20T05:42:39;11.38;;;4.75;;
24373;SDS011;12498;50.880;12.096;2023-07-20T05:45:05;10.20;;;5.30;;
24373;SDS011;12498;50.880;12.096;2023-07-20T05:47:31;9.63;;;5.38;;
24373;SDS011;12498;50.880;12.096;2023-07-20T05:49:57;8.35;;;5.38;;
24373;SDS011;12498;50.880;12.096;2023-07-20T05:52:22;12.35;;;5.68;;
24373;SDS011;12498;50.880;12.096;2023-07-20T05:54:48;9.23;;;5.03;;
24373;SDS011;12498;50.880;12.096;2023-07-20T05:57:13;11.77;;;5.35;;
24373;SDS011;12498;50.880;12.096;2023-07-20T05:59:39;10.98;;;5.63;;
24373;SDS011;12498;50.880;12.096;2023-07-20T06:02:08;11.95;;;5.30;;
24373;SDS011;12498;50.880;12.096;2023-07-20T06:04:34;11.73;;;5.55;;
24373;SDS011;12498;50.880;12.096;2023-07-20T06:07:00;12.45;;;5.90;;
24373;SDS011;12498;50.880;12.096;2023-07-20T06:09:26;13.88;;;5.93;;
24373;SDS011;12498;50.880;12.096;2023-07-20T06:11:52;10.57;;;5.25;;
24373;SDS011;12498;50.880;12.096;2023-07-20T06:14:18;8.85;;;4.38;;
24373;SDS011;12498;50.880;12.096;2023-07-20T06:16:44;9.88;;;4.97;;
24373;SDS011;12498;50.880;12.096;2023-07-20T06:19:09;10.98;;;5.05;;
24373;SDS011;12498;50.880;12.096;2023-07-20T06:21:38;7.60;;;4.70;;
24373;SDS011;12498;50.880;12.096;2023-07-20T06:24:04;9.50;;;4.90;;
24373;SDS011;12498;50.880;12.096;2023-07-20T06:26:30;8.05;;;4.65;;
24373;SDS011;12498;50.880;12.096;2023-07-20T06:28:56;8.77;;;4.90;;
24373;SDS011;12498;50.880;12.096;2023-07-20T06:31:23;7.90;;;4.70;;
24373;SDS011;12498;50.880;12.096;2023-07-20T06:33:48;9.10;;;4.68;;
24373;SDS011;12498;50.880;12.096;2023-07-20T06:36:17;8.68;;;4.53;;
24373;SDS011;12498;50.880;12.096;2023-07-20T06:38:43;10.05;;;5.18;;
24373;SDS011;12498;50.880;12.096;2023-07-20T06:41:08;7.07;;;4.47;;
24373;SDS011;12498;50.880;12.096;2023-07-20T06:43:34;10.90;;;4.38;;
24373;SDS011;12498;50.880;12.096;2023-07-20T06:46:00;11.25;;;4.45;;
24373;SDS011;12498;50.880;12.096;2023-07-20T06:48:26;8.68;;;4.68;;
24373;SDS011;12498;50.880;12.096;2023-07-20T06:50:51;10.52;;;4.65;;
24373;SDS011;12498;50.880;12.096;2023-07-20T06:53:17;7.72;;;3.70;;
24373;SDS011;12498;50.880;12.096;2023-07-20T06:55:43;8.48;;;4.22;;
24373;SDS011;12498;50.880;12.096;2023-07-20T06:58:09;7.63;;;4.53;;
24373;SDS011;12498;50.880;12.096;2023-07-20T07:00:36;6.97;;;4.03;;
24373;SDS011;12498;50.880;12.096;2023-07-20T07:03:01;8.75;;;4.68;;
24373;SDS011;12498;50.880;12.096;2023-07-20T07:05:27;8.95;;;4.80;;
24373;SDS011;12498;50.880;12.096;2023-07-20T07:07:53;10.50;;;4.80;;
24373;SDS011;12498;50.880;12.096;2023-07-20T07:10:19;7.20;;;4.43;;
24373;SDS011;12498;50.880;12.096;2023-07-20T07:12:44;10.05;;;4.50;;
24373;SDS011;12498;50.880;12.096;2023-07-20T07:15:10;7.78;;;4.40;;
24373;SDS011;12498;50.880;12.096;2023-07-20T07:17:36;5.75;;;4.28;;
24373;SDS011;12498;50.880;12.096;2023-07-20T07:20:02;7.93;;;4.55;;
24373;SDS011;12498;50.880;12.096;2023-07-20T07:22:29;9.07;;;4.20;;
24373;SDS011;12498;50.880;12.096;2023-07-20T07:24:55;7.35;;;4.07;;
24373;SDS011;12498;50.880;12.096;2023-07-20T07:27:21;9.43;;;3.78;;
24373;SDS011;12498;50.880;12.096;2023-07-20T07:29:46;8.40;;;4.00;;
24373;SDS011;12498;50.880;12.096;2023-07-20T07:32:13;7.40;;;4.68;;
24373;SDS011;12498;50.880;12.096;2023-07-20T07:34:40;7.10;;;3.42;;
24373;SDS011;12498;50.880;12.096;2023-07-20T07:37:05;6.65;;;3.90;;
24373;SDS011;12498;50.880;12.096;2023-07-20T07:39:31;6.97;;;3.63;;
24373;SDS011;12498;50.880;12.096;2023-07-20T07:41:57;8.13;;;4.15;;
24373;SDS011;12498;50.880;12.096;2023-07-20T07:44:23;6.93;;;3.30;;
24373;SDS011;12498;50.880;12.096;2023-07-20T07:46:48;6.88;;;3.85;;
24373;SDS011;12498;50.880;12.096;2023-07-20T07:49:15;5.80;;;3.85;;
24373;SDS011;12498;50.880;12.096;2023-07-20T07:51:41;12.07;;;4.38;;
24373;SDS011;12498;50.880;12.096;2023-07-20T07:54:07;7.78;;;4.10;;
24373;SDS011;12498;50.880;12.096;2023-07-20T07:56:32;6.82;;;3.40;;
24373;SDS011;12498;50.880;12.096;2023-07-20T07:58:58;6.10;;;3.60;;
24373;SDS011;12498;50.880;12.096;2023-07-20T08:01:23;7.28;;;4.10;;
24373;SDS011;12498;50.880;12.096;2023-07-20T08:03:49;12.20;;;4.07;;
24373;SDS011;12498;50.880;12.096;2023-07-20T08:06:15;9.40;;;3.95;;
24373;SDS011;12498;50.880;12.096;2023-07-20T08:08:41;6.15;;;4.00;;
24373;SDS011;12498;50.880;12.096;2023-07-20T08:11:07;6.55;;;3.40;;
24373;SDS011;12498;50.880;12.096;2023-07-20T08:13:33;8.10;;;3.58;;
24373;SDS011;12498;50.880;12.096;2023-07-20T08:16:00;6.35;;;3.30;;
24373;SDS011;12498;50.880;12.096;2023-07-20T08:18:29;5.30;;;3.30;;
24373;SDS011;12498;50.880;12.096;2023-07-20T08:20:54;5.75;;;2.80;;
24373;SDS011;12498;50.880;12.096;2023-07-20T08:23:20;9.85;;;2.92;;
24373;SDS011;12498;50.880;12.096;2023-07-20T08:25:46;7.57;;;3.05;;
24373;SDS011;12498;50.880;12.096;2023-07-20T08:28:15;7.60;;;2.95;;
24373;SDS011;12498;50.880;12.096;2023-07-20T08:30:42;5.90;;;2.92;;
24373;SDS011;12498;50.880;12.096;2023-07-20T08:33:12;9.75;;;3.17;;
24373;SDS011;12498;50.880;12.096;2023-07-20T08:35:43;6.05;;;2.83;;
24373;SDS011;12498;50.880;12.096;2023-07-20T08:38:08;6.15;;;3.05;;
24373;SDS011;12498;50.880;12.096;2023-07-20T08:40:39;5.47;;;2.60;;
24373;SDS011;12498;50.880;12.096;2023-07-20T08:43:12;4.32;;;2.60;;
24373;SDS011;12498;50.880;12.096;2023-07-20T08:45:41;5.82;;;2.90;;
24373;SDS011;12498;50.880;12.096;2023-07-20T08:48:10;5.93;;;3.00;;
24373;SDS011;12498;50.880;12.096;2023-07-20T08:50:37;7.18;;;2.92;;
24373;SDS011;12498;50.880;12.096;2023-07-20T08:53:03;9.48;;;2.90;;
24373;SDS011;12498;50.880;12.096;2023-07-20T08:55:30;3.78;;;2.70;;
24373;SDS011;12498;50.880;12.096;2023-07-20T08:57:57;5.72;;;3.00;;
24373;SDS011;12498;50.880;12.096;2023-07-20T09:00:24;5.30;;;2.78;;
24373;SDS011;12498;50.880;12.096;2023-07-20T09:02:52;7.18;;;3.67;;
24373;SDS011;12498;50.880;12.096;2023-07-20T09:05:19;45.50;;;33.70;;
24373;SDS011;12498;50.880;12.096;2023-07-20T09:07:46;39.70;;;29.50;;
24373;SDS011;12498;50.880;12.096;2023-07-20T09:10:12;96.90;;;76.53;;
24373;SDS011;12498;50.880;12.096;2023-07-20T09:12:39;87.07;;;63.03;;
24373;SDS011;12498;50.880;12.096;2023-07-20T09:15:10;118.90;;;85.45;;
24373;SDS011;12498;50.880;12.096;2023-07-20T09:17:36;82.93;;;60.63;;
24373;SDS011;12498;50.880;12.096;2023-07-20T09:20:06;98.05;;;70.05;;
24373;SDS011;12498;50.880;12.096;2023-07-20T09:22:36;110.95;;;82.13;;
24373;SDS011;12498;50.880;12.096;2023-07-20T09:25:26;130.93;;;99.53;;
24373;SDS011;12498;50.880;12.096;2023-07-20T09:27:51;239.55;;;174.82;;
24373;SDS011;12498;50.880;12.096;2023-07-20T09:30:17;52.63;;;36.38;;
24373;SDS011;12498;50.880;12.096;2023-07-20T09:32:43;124.85;;;85.28;;
24373;SDS011;12498;50.880;12.096;2023-07-20T09:35:17;152.18;;;111.75;;
24373;SDS011;12498;50.880;12.096;2023-07-20T09:37:48;154.50;;;108.82;;
24373;SDS011;12498;50.880;12.096;2023-07-20T09:40:18;28.05;;;18.98;;
24373;SDS011;12498;50.880;12.096;2023-07-20T09:42:45;159.68;;;115.28;;
24373;SDS011;12498;50.880;12.096;2023-07-20T09:45:11;128.35;;;94.75;;
24373;SDS011;12498;50.880;12.096;2023-07-20T09:47:37;68.28;;;45.38;;
24373;SDS011;12498;50.880;12.096;2023-07-20T09:50:03;45.60;;;30.95;;
24373;SDS011;12498;50.880;12.096;2023-07-20T09:52:35;30.15;;;19.92;;
24373;SDS011;12498;50.880;12.096;2023-07-20T09:55:05;44.75;;;31.05;;
24373;SDS011;12498;50.880;12.096;2023-07-20T09:57:33;87.32;;;61.90;;
24373;SDS011;12498;50.880;12.096;2023-07-20T09:59:59;65.00;;;41.17;;
24373;SDS011;12498;50.880;12.096;2023-07-20T10:02:25;34.95;;;22.52;;
24373;SDS011;12498;50.880;12.096;2023-07-20T10:04:58;135.40;;;86.47;;
24373;SDS011;12498;50.880;12.096;2023-07-20T10:07:29;55.83;;;40.80;;
24373;SDS011;12498;50.880;12.096;2023-07-20T10:09:56;120.55;;;81.22;;
24373;SDS011;12498;50.880;12.096;2023-07-20T10:12:26;64.97;;;42.53;;
24373;SDS011;12498;50.880;12.096;2023-07-20T10:15:06;81.28;;;49.30;;
24373;SDS011;12498;50.880;12.096;2023-07-20T10:17:37;29.70;;;18.92;;
24373;SDS011;12498;50.880;12.096;2023-07-20T10:20:14;43.77;;;25.20;;
24373;SDS011;12498;50.880;12.096;2023-07-20T10:22:41;23.67;;;11.88;;
24373;SDS011;12498;50.880;12.096;2023-07-20T10:25:10;8.02;;;5.75;;
24373;SDS011;12498;50.880;12.096;2023-07-20T10:27:36;16.73;;;9.20;;
24373;SDS011;12498;50.880;12.096;2023-07-20T10:30:04;8.60;;;4.50;;
24373;SDS011;12498;50.880;12.096;2023-07-20T10:32:30;5.00;;;3.45;;
24373;SDS011;12498;50.880;12.096;2023-07-20T10:34:56;8.55;;;3.83;;
24373;SDS011;12498;50.880;12.096;2023-07-20T10:40:23;4.60;;;3.45;;
24373;SDS011;12498;50.880;12.096;2023-07-20T10:42:50;5.75;;;2.85;;
24373;SDS011;12498;50.880;12.096;2023-07-20T10:45:17;6.65;;;3.70;;
24373;SDS011;12498;50.880;12.096;2023-07-20T10:47:46;5.78;;;2.60;;
24373;SDS011;12498;50.880;12.096;2023-07-20T10:50:12;6.88;;;3.13;;
24373;SDS011;12498;50.880;12.096;2023-07-20T10:52:38;6.80;;;2.50;;
24373;SDS011;12498;50.880;12.096;2023-07-20T10:55:13;6.30;;;3.33;;
24373;SDS011;12498;50.880;12.096;2023-07-20T10:57:41;6.88;;;3.17;;
24373;SDS011;12498;50.880;12.096;2023-07-20T11:02:48;7.07;;;4.40;;
24373;SDS011;12498;50.880;12.096;2023-07-20T11:08:03;5.70;;;4.53;;
24373;SDS011;12498;50.880;12.096;2023-07-20T11:10:30;8.13;;;5.15;;
24373;SDS011;12498;50.880;12.096;2023-07-20T11:15:47;8.85;;;4.78;;
24373;SDS011;12498;50.880;12.096;2023-07-20T11:18:21;10.98;;;5.20;;
24373;SDS011;12498;50.880;12.096;2023-07-20T11:23:17;5.75;;;4.32;;
24373;SDS011;12498;50.880;12.096;2023-07-20T11:25:44;7.97;;;4.32;;
24373;SDS011;12498;50.880;12.096;2023-07-20T11:28:11;5.63;;;3.97;;
24373;SDS011;12498;50.880;12.096;2023-07-20T11:30:39;6.63;;;3.60;;
24373;SDS011;12498;50.880;12.096;2023-07-20T11:33:05;6.38;;;4.10;;
24373;SDS011;12498;50.880;12.096;2023-07-20T11:35:43;5.37;;;3.83;;
24373;SDS011;12498;50.880;12.096;2023-07-20T11:38:14;4.60;;;3.40;;
24373;SDS011;12498;50.880;12.096;2023-07-20T11:40:46;5.65;;;3.47;;
24373;SDS011;12498;50.880;12.096;2023-07-20T11:43:12;7.15;;;3.70;;
24373;SDS011;12498;50.880;12.096;2023-07-20T11:45:38;5.15;;;3.10;;
24373;SDS011;12498;50.880;12.096;2023-07-20T11:48:04;5.28;;;3.10;;
24373;SDS011;12498;50.880;12.096;2023-07-20T11:50:30;4.00;;;2.60;;
24373;SDS011;12498;50.880;12.096;2023-07-20T11:52:56;4.63;;;2.20;;
24373;SDS011;12498;50.880;12.096;2023-07-20T11:55:22;5.35;;;2.30;;
24373;SDS011;12498;50.880;12.096;2023-07-20T11:58:04;5.13;;;2.30;;
24373;SDS011;12498;50.880;12.096;2023-07-20T12:00:31;7.43;;;1.80;;
24373;SDS011;12498;50.880;12.096;2023-07-20T12:02:58;3.50;;;1.65;;
24373;SDS011;12498;50.880;12.096;2023-07-20T12:05:24;3.13;;;1.27;;
24373;SDS011;12498;50.880;12.096;2023-07-20T12:07:51;1.77;;;1.20;;
24373;SDS011;12498;50.880;12.096;2023-07-20T12:10:23;1.77;;;1.00;;
24373;SDS011;12498;50.880;12.096;2023-07-20T12:12:51;1.92;;;1.02;;
24373;SDS011;12498;50.880;12.096;2023-07-20T12:15:20;3.25;;;1.13;;
24373;SDS011;12498;50.880;12.096;2023-07-20T12:17:51;3.05;;;1.10;;
24373;SDS011;12498;50.880;12.096;2023-07-20T12:20:24;5.05;;;0.95;;
24373;SDS011;12498;50.880;12.096;2023-07-20T12:22:52;1.00;;;0.77;;
24373;SDS011;12498;50.880;12.096;2023-07-20T12:25:19;1.30;;;0.80;;
24373;SDS011;12498;50.880;12.096;2023-07-20T12:27:45;2.47;;;0.85;;
24373;SDS011;12498;50.880;12.096;2023-07-20T12:30:12;1.90;;;0.80;;
24373;SDS011;12498;50.880;12.096;2023-07-20T12:32:41;4.82;;;1.00;;
24373;SDS011;12498;50.880;12.096;2023-07-20T12:35:07;1.23;;;0.70;;
24373;SDS011;12498;50.880;12.096;2023-07-20T12:37:33;1.67;;;0.90;;
24373;SDS011;12498;50.880;12.096;2023-07-20T12:39:59;2.38;;;0.90;;
24373;SDS011;12498;50.880;12.096;2023-07-20T12:42:25;1.13;;;0.88;;
24373;SDS011;12498;50.880;12.096;2023-07-20T12:44:50;1.30;;;0.70;;
24373;SDS011;12498;50.880;12.096;2023-07-20T12:47:17;2.45;;;0.90;;
24373;SDS011;12498;50.880;12.096;2023-07-20T12:49:43;7.70;;;5.38;;
24373;SDS011;12498;50.880;12.096;2023-07-20T12:52:10;3.85;;;2.15;;
24373;SDS011;12498;50.880;12.096;2023-07-20T12:54:36;3.63;;;1.40;;
24373;SDS011;12498;50.880;12.096;2023-07-20T12:57:01;3.40;;;0.93;;
24373;SDS011;12498;50.880;12.096;2023-07-20T12:59:28;3.55;;;1.17;;
24373;SDS011;12498;50.880;12.096;2023-07-20T13:01:54;2.05;;;1.15;;
24373;SDS011;12498;50.880;12.096;2023-07-20T13:04:19;1.65;;;1.20;;
24373;SDS011;12498;50.880;12.096;2023-07-20T13:06:45;1.60;;;1.10;;
24373;SDS011;12498;50.880;12.096;2023-07-20T13:09:11;1.95;;;1.27;;
24373;SDS011;12498;50.880;12.096;2023-07-20T13:11:36;1.50;;;1.00;;
24373;SDS011;12498;50.880;12.096;2023-07-20T13:14:02;3.45;;;1.20;;
24373;SDS011;12498;50.880;12.096;2023-07-20T13:16:28;1.70;;;1.10;;
24373;SDS011;12498;50.880;12.096;2023-07-20T13:18:53;2.33;;;1.10;;
24373;SDS011;12498;50.880;12.096;2023-07-20T13:21:19;1.90;;;1.30;;
24373;SDS011;12498;50.880;12.096;2023-07-20T13:23:47;3.17;;;1.20;;
24373;SDS011;12498;50.880;12.096;2023-07-20T13:26:13;2.45;;;1.65;;
24373;SDS011;12498;50.880;12.096;2023-07-20T13:28:40;3.90;;;1.40;;
24373;SDS011;12498;50.880;12.096;2023-07-20T13:31:06;2.50;;;1.23;;
24373;SDS011;12498;50.880;12.096;2023-07-20T13:33:33;1.83;;;1.30;;
24373;SDS011;12498;50.880;12.096;2023-07-20T13:36:00;2.13;;;1.35;;
24373;SDS011;12498;50.880;12.096;2023-07-20T13:38:26;2.53;;;1.30;;
24373;SDS011;12498;50.880;12.096;2023-07-20T13:40:51;1.92;;;1.20;;
24373;SDS011;12498;50.880;12.096;2023-07-20T13:43:17;2.95;;;1.40;;
24373;SDS011;12498;50.880;12.096;2023-07-20T13:45:43;2.05;;;1.10;;
24373;SDS011;12498;50.880;12.096;2023-07-20T13:48:08;2.40;;;1.20;;
24373;SDS011;12498;50.880;12.096;2023-07-20T13:50:34;3.72;;;1.23;;
24373;SDS011;12498;50.880;12.096;2023-07-20T13:53:00;2.85;;;1.10;;
24373;SDS011;12498;50.880;12.096;2023-07-20T13:55:27;6.35;;;2.20;;
24373;SDS011;12498;50.880;12.096;2023-07-20T13:57:53;3.45;;;1.38;;
24373;SDS011;12498;50.880;12.096;2023-07-20T14:00:19;2.95;;;1.35;;
24373;SDS011;12498;50.880;12.096;2023-07-20T14:02:44;1.58;;;1.20;;
24373;SDS011;12498;50.880;12.096;2023-07-20T14:05:10;2.38;;;1.10;;
24373;SDS011;12498;50.880;12.096;2023-07-20T14:07:36;2.90;;;1.40;;
24373;SDS011;12498;50.880;12.096;2023-07-20T14:10:02;2.67;;;1.30;;
24373;SDS011;12498;50.880;12.096;2023-07-20T14:12:28;4.75;;;1.30;;
24373;SDS011;12498;50.880;12.096;2023-07-20T14:14:54;2.53;;;1.30;;
24373;SDS011;12498;50.880;12.096;2023-07-20T14:17:21;1.30;;;1.20;;
24373;SDS011;12498;50.880;12.096;2023-07-20T14:19:46;1.83;;;1.17;;
24373;SDS011;12498;50.880;12.096;2023-07-20T14:22:12;1.25;;;1.10;;
24373;SDS011;12498;50.880;12.096;2023-07-20T14:24:38;2.35;;;1.20;;
24373;SDS011;12498;50.880;12.096;2023-07-20T14:27:03;1.55;;;1.30;;
24373;SDS011;12498;50.880;12.096;2023-07-20T14:29:29;3.22;;;1.95;;
24373;SDS011;12498;50.880;12.096;2023-07-20T14:31:56;2.22;;;1.83;;
24373;SDS011;12498;50.880;12.096;2023-07-20T14:34:22;2.13;;;1.52;;
24373;SDS011;12498;50.880;12.096;2023-07-20T14:36:48;2.92;;;2.10;;
24373;SDS011;12498;50.880;12.096;2023-07-20T14:39:15;4.35;;;3.15;;
24373;SDS011;12498;50.880;12.096;2023-07-20T14:41:40;5.13;;;1.85;;
24373;SDS011;12498;50.880;12.096;2023-07-20T14:44:06;2.38;;;1.63;;
24373;SDS011;12498;50.880;12.096;2023-07-20T14:46:32;2.20;;;1.60;;
24373;SDS011;12498;50.880;12.096;2023-07-20T14:48:57;2.08;;;1.30;;
24373;SDS011;12498;50.880;12.096;2023-07-20T14:51:23;2.38;;;1.30;;